createdAt,value
2022-11-29T00:00:07.519Z,11.88
2022-11-29T00:00:49.722Z,11.48
2022-11-29T00:01:25.589Z,10.95
2022-11-29T00:01:57.755Z,10.25
2022-11-29T00:02:29.812Z,10.38
2022-11-29T00:03:02.096Z,10.07
2022-11-29T00:03:34.583Z,11.15
2022-11-29T00:04:06.968Z,12.48
2022-11-29T00:04:38.896Z,11.23
2022-11-29T00:05:10.887Z,11.88
2022-11-29T00:05:42.754Z,10.05
2022-11-29T00:06:17.520Z,11.25
2022-11-29T00:06:49.651Z,11.65
2022-11-29T00:07:21.561Z,10.15
2022-11-29T00:07:53.563Z,10.50
2022-11-29T00:08:25.490Z,10.50
2022-11-29T00:09:03.570Z,10.38
2022-11-29T00:09:35.403Z,10.95
2022-11-29T00:10:08.110Z,10.68
2022-11-29T00:10:40.009Z,11.35
2022-11-29T00:11:36.335Z,11.18
2022-11-29T00:12:12.201Z,10.60
2022-11-29T00:12:46.341Z,9.82
2022-11-29T00:13:18.179Z,10.60
2022-11-29T00:13:50.148Z,11.60
2022-11-29T00:14:22.970Z,10.60
2022-11-29T00:14:54.914Z,10.73
2022-11-29T00:15:26.740Z,11.15
2022-11-29T00:16:05.717Z,10.73
2022-11-29T00:16:37.606Z,10.93
2022-11-29T00:17:09.863Z,9.15
2022-11-29T00:17:41.811Z,11.40
2022-11-29T00:18:13.648Z,10.45
2022-11-29T00:18:45.506Z,11.90
2022-11-29T00:19:17.368Z,11.18
2022-11-29T00:19:49.196Z,11.52
2022-11-29T00:20:21.032Z,10.95
2022-11-29T00:20:52.853Z,11.43
2022-11-29T00:21:24.708Z,11.23
2022-11-29T00:21:56.713Z,11.00
2022-11-29T00:22:29.376Z,11.52
2022-11-29T00:23:01.721Z,10.55
2022-11-29T00:23:34.097Z,11.00
2022-11-29T00:24:06.349Z,10.10
2022-11-29T00:24:38.190Z,10.55
2022-11-29T00:25:10.048Z,10.75
2022-11-29T00:25:41.903Z,11.10
2022-11-29T00:26:13.737Z,10.95
2022-11-29T00:26:45.818Z,9.98
2022-11-29T00:27:18.419Z,10.90
2022-11-29T00:27:51.557Z,10.38
2022-11-29T00:28:23.465Z,10.30
2022-11-29T00:28:55.316Z,10.88
2022-11-29T00:29:27.758Z,10.80
2022-11-29T00:29:59.793Z,10.63
2022-11-29T00:30:31.775Z,10.13
2022-11-29T00:31:15.570Z,9.77
2022-11-29T00:31:47.519Z,9.95
2022-11-29T00:32:19.384Z,10.88
2022-11-29T00:32:51.526Z,10.35
2022-11-29T00:33:23.401Z,9.60
2022-11-29T00:33:57.071Z,10.02
2022-11-29T00:34:28.971Z,9.07
2022-11-29T00:35:05.227Z,10.15
2022-11-29T00:35:40.071Z,10.82
2022-11-29T00:36:12.771Z,9.77
2022-11-29T00:36:44.665Z,10.02
2022-11-29T00:37:16.495Z,10.82
2022-11-29T00:37:48.391Z,10.75
2022-11-29T00:38:20.552Z,10.30
2022-11-29T00:38:52.459Z,9.68
2022-11-29T00:39:24.448Z,9.93
2022-11-29T00:39:56.330Z,8.93
2022-11-29T00:40:28.183Z,10.02
2022-11-29T00:41:00.033Z,8.73
2022-11-29T00:41:32.606Z,9.65
2022-11-29T00:42:05.372Z,9.15
2022-11-29T00:42:37.256Z,9.30
2022-11-29T00:43:09.086Z,8.75
2022-11-29T00:43:41.681Z,9.65
2022-11-29T00:44:19.644Z,9.32
2022-11-29T00:44:52.159Z,9.07
2022-11-29T00:45:24.324Z,8.32
2022-11-29T00:45:56.357Z,8.65
2022-11-29T00:46:28.274Z,8.50
2022-11-29T00:47:00.250Z,8.65
2022-11-29T00:47:32.161Z,8.63
2022-11-29T00:48:04.246Z,9.05
2022-11-29T00:48:36.398Z,8.32
2022-11-29T00:49:08.615Z,7.97
2022-11-29T00:49:40.486Z,8.10
2022-11-29T00:50:12.493Z,9.18
2022-11-29T00:50:44.326Z,8.57
2022-11-29T00:51:16.191Z,8.68
2022-11-29T00:51:48.059Z,8.65
2022-11-29T00:52:19.920Z,9.32
2022-11-29T00:52:51.798Z,9.38
2022-11-29T00:53:23.757Z,8.63
2022-11-29T00:53:55.658Z,8.90
2022-11-29T00:54:27.958Z,8.98
2022-11-29T00:54:59.890Z,9.02
2022-11-29T00:55:31.761Z,8.80
2022-11-29T00:56:04.602Z,8.45
2022-11-29T00:56:36.583Z,8.55
2022-11-29T00:57:08.437Z,8.88
2022-11-29T00:57:40.385Z,9.02
2022-11-29T00:58:12.216Z,7.90
2022-11-29T00:58:44.170Z,9.82
2022-11-29T00:59:16.034Z,9.20
2022-11-29T00:59:48.165Z,9.07
2022-11-29T01:00:20.378Z,8.85
2022-11-29T01:00:53.570Z,9.02
2022-11-29T01:01:25.710Z,8.68
2022-11-29T01:01:57.721Z,9.15
2022-11-29T01:02:29.637Z,9.02
2022-11-29T01:03:02.104Z,8.93
2022-11-29T01:03:34.015Z,8.73
2022-11-29T01:04:05.951Z,8.98
2022-11-29T01:04:37.921Z,9.35
2022-11-29T01:05:10.152Z,8.75
2022-11-29T01:05:42.983Z,9.13
2022-11-29T01:06:17.335Z,9.70
2022-11-29T01:06:53.326Z,9.80
2022-11-29T01:07:25.328Z,8.38
2022-11-29T01:07:57.325Z,9.00
2022-11-29T01:08:29.267Z,8.55
2022-11-29T01:09:01.217Z,8.77
2022-11-29T01:09:33.064Z,8.38
2022-11-29T01:10:05.559Z,8.15
2022-11-29T01:10:38.112Z,8.35
2022-11-29T01:11:14.357Z,9.20
2022-11-29T01:11:46.301Z,9.27
2022-11-29T01:12:18.135Z,9.07
2022-11-29T01:12:50.089Z,8.27
2022-11-29T01:13:21.904Z,8.60
2022-11-29T01:13:57.308Z,9.35
2022-11-29T01:14:29.140Z,8.52
2022-11-29T01:15:00.998Z,9.15
2022-11-29T01:15:33.068Z,9.65
2022-11-29T01:16:06.458Z,7.97
2022-11-29T01:16:38.332Z,9.02
2022-11-29T01:17:10.519Z,9.57
2022-11-29T01:17:42.769Z,9.27
2022-11-29T01:18:15.527Z,8.90
2022-11-29T01:18:47.721Z,9.10
2022-11-29T01:19:19.607Z,8.63
2022-11-29T01:19:51.467Z,9.13
2022-11-29T01:20:23.336Z,8.93
2022-11-29T01:21:01.714Z,8.88
2022-11-29T01:21:34.093Z,9.05
2022-11-29T01:22:05.968Z,8.93
2022-11-29T01:22:39.481Z,9.10
2022-11-29T01:23:11.426Z,9.77
2022-11-29T01:23:44.496Z,9.05
2022-11-29T01:24:16.372Z,8.90
2022-11-29T01:24:48.444Z,9.65
2022-11-29T01:25:20.815Z,9.18
2022-11-29T01:26:01.598Z,9.02
2022-11-29T01:26:33.859Z,9.38
2022-11-29T01:27:05.765Z,9.82
2022-11-29T01:27:37.839Z,9.20
2022-11-29T01:28:09.662Z,9.88
2022-11-29T01:28:42.460Z,8.95
2022-11-29T01:29:14.395Z,9.93
2022-11-29T01:29:46.231Z,8.65
2022-11-29T01:30:18.120Z,9.18
2022-11-29T01:30:49.943Z,9.27
2022-11-29T01:31:24.440Z,9.35
2022-11-29T01:31:56.588Z,9.50
2022-11-29T01:32:28.517Z,9.30
2022-11-29T01:33:00.389Z,10.20
2022-11-29T01:33:32.390Z,9.48
2022-11-29T01:34:06.745Z,9.60
2022-11-29T01:34:39.262Z,9.40
2022-11-29T01:35:11.267Z,9.52
2022-11-29T01:35:54.827Z,10.10
2022-11-29T01:36:27.983Z,9.50
2022-11-29T01:37:00.412Z,10.32
2022-11-29T01:37:32.507Z,9.88
2022-11-29T01:38:04.401Z,9.55
2022-11-29T01:38:37.113Z,9.80
2022-11-29T01:39:09.023Z,9.77
2022-11-29T01:39:40.840Z,9.52
2022-11-29T01:40:13.907Z,10.13
2022-11-29T01:40:56.516Z,10.13
2022-11-29T01:41:31.866Z,8.90
2022-11-29T01:42:04.270Z,9.25
2022-11-29T01:42:36.124Z,10.40
2022-11-29T01:43:17.289Z,9.90
2022-11-29T01:44:00.338Z,10.82
2022-11-29T01:44:32.103Z,10.13
2022-11-29T01:45:25.384Z,9.18
2022-11-29T01:45:58.176Z,9.85
2022-11-29T01:46:38.462Z,9.75
2022-11-29T01:47:11.899Z,9.95
2022-11-29T01:47:46.296Z,9.93
2022-11-29T01:48:19.942Z,9.68
2022-11-29T01:48:56.910Z,10.80
2022-11-29T01:49:34.018Z,9.75
2022-11-29T01:50:08.141Z,10.25
2022-11-29T01:50:42.544Z,9.50
2022-11-29T01:51:14.931Z,9.75
2022-11-29T01:51:51.465Z,10.05
2022-11-29T01:52:28.460Z,8.73
2022-11-29T01:53:00.847Z,9.32
2022-11-29T01:53:33.173Z,9.35
2022-11-29T01:54:05.796Z,9.40
2022-11-29T01:54:41.721Z,10.02
2022-11-29T01:55:14.165Z,10.25
2022-11-29T01:55:53.597Z,9.75
2022-11-29T01:56:26.388Z,9.00
2022-11-29T01:56:59.416Z,10.38
2022-11-29T01:57:33.972Z,10.25
2022-11-29T01:58:07.720Z,9.20
2022-11-29T01:58:39.694Z,9.95
2022-11-29T01:59:19.265Z,9.57
2022-11-29T01:59:56.853Z,9.32
2022-11-29T02:00:30.037Z,10.13
2022-11-29T02:01:02.572Z,10.57
2022-11-29T02:01:35.891Z,10.43
2022-11-29T02:02:20.520Z,9.45
2022-11-29T02:02:58.460Z,9.70
2022-11-29T02:03:30.715Z,10.02
2022-11-29T02:04:03.325Z,9.65
2022-11-29T02:04:36.438Z,9.88
2022-11-29T02:05:09.215Z,10.18
2022-11-29T02:05:45.020Z,9.73
2022-11-29T02:06:16.895Z,10.27
2022-11-29T02:06:48.771Z,9.82
2022-11-29T02:07:20.684Z,9.30
2022-11-29T02:07:55.896Z,10.07
2022-11-29T02:08:39.214Z,9.98
2022-11-29T02:09:23.084Z,10.20
2022-11-29T02:09:55.054Z,9.93
2022-11-29T02:11:04.485Z,9.15
2022-11-29T02:11:57.580Z,8.70
2022-11-29T02:12:29.375Z,10.50
2022-11-29T02:13:11.534Z,9.57
2022-11-29T02:14:15.512Z,10.20
2022-11-29T02:14:56.935Z,9.68
2022-11-29T02:15:57.451Z,9.30
2022-11-29T02:16:52.226Z,9.93
2022-11-29T02:18:02.487Z,10.40
2022-11-29T02:19:04.003Z,10.40
2022-11-29T02:20:06.414Z,10.75
2022-11-29T02:20:47.557Z,11.30
2022-11-29T02:22:09.235Z,10.40
2022-11-29T02:22:57.205Z,10.60
2022-11-29T02:24:00.130Z,11.32
2022-11-29T02:24:44.094Z,11.00
2022-11-29T02:26:00.634Z,10.48
2022-11-29T02:27:10.656Z,11.02
2022-11-29T02:27:42.448Z,11.02
2022-11-29T02:28:47.929Z,11.90
2022-11-29T02:29:44.111Z,10.85
2022-11-29T02:30:39.382Z,10.23
2022-11-29T02:31:14.126Z,10.60
2022-11-29T02:32:04.292Z,10.77
2022-11-29T02:32:51.118Z,10.90
2022-11-29T02:33:52.953Z,12.05
2022-11-29T02:34:51.317Z,11.07
2022-11-29T02:35:41.766Z,10.95
2022-11-29T02:36:58.442Z,10.50
2022-11-29T02:37:55.424Z,10.95
2022-11-29T02:38:51.991Z,10.77
2022-11-29T02:39:35.587Z,10.70
2022-11-29T02:40:23.033Z,10.50
2022-11-29T02:41:17.984Z,11.00
2022-11-29T02:42:01.689Z,10.73
2022-11-29T02:42:56.412Z,10.27
2022-11-29T02:43:43.867Z,11.10
2022-11-29T02:44:44.921Z,10.73
2022-11-29T02:45:22.566Z,10.75
2022-11-29T02:46:12.878Z,11.00
2022-11-29T02:46:47.703Z,11.43
2022-11-29T02:47:46.275Z,10.73
2022-11-29T02:49:03.413Z,10.55
2022-11-29T02:49:52.793Z,11.10
2022-11-29T02:50:41.467Z,10.77
2022-11-29T02:51:24.690Z,11.48
2022-11-29T02:52:05.037Z,10.23
2022-11-29T02:52:46.526Z,9.75
2022-11-29T02:53:47.720Z,9.93
2022-11-29T02:54:53.077Z,8.80
2022-11-29T02:55:47.613Z,7.62
2022-11-29T02:56:25.274Z,10.23
2022-11-29T02:57:09.173Z,8.88
2022-11-29T02:57:54.363Z,9.20
2022-11-29T02:58:51.348Z,8.30
2022-11-29T02:59:46.256Z,9.02
2022-11-29T03:00:23.373Z,8.57
2022-11-29T03:01:07.062Z,8.80
2022-11-29T03:02:07.084Z,8.38
2022-11-29T03:03:08.767Z,9.20
2022-11-29T03:03:53.130Z,8.00
2022-11-29T03:04:34.669Z,9.05
2022-11-29T03:05:25.073Z,8.75
2022-11-29T03:06:22.946Z,8.35
2022-11-29T03:07:22.513Z,9.43
2022-11-29T03:08:31.794Z,9.18
2022-11-29T03:09:33.155Z,8.70
2022-11-29T03:10:20.873Z,8.25
2022-11-29T03:10:57.540Z,8.63
2022-11-29T03:11:45.165Z,8.50
2022-11-29T03:12:31.797Z,8.32
2022-11-29T03:13:10.499Z,9.35
2022-11-29T03:14:10.000Z,7.90
2022-11-29T03:14:59.779Z,7.82
2022-11-29T03:15:38.789Z,8.05
2022-11-29T03:16:22.728Z,8.13
2022-11-29T03:17:07.417Z,8.00
2022-11-29T03:18:00.965Z,8.80
2022-11-29T03:18:56.076Z,8.25
2022-11-29T03:19:55.246Z,7.80
2022-11-29T03:20:56.432Z,8.43
2022-11-29T03:21:50.160Z,8.43
2022-11-29T03:22:40.349Z,8.05
2022-11-29T03:23:33.679Z,8.02
2022-11-29T03:24:14.760Z,7.93
2022-11-29T03:24:55.612Z,8.18
2022-11-29T03:25:40.056Z,8.35
2022-11-29T03:26:15.524Z,8.35
2022-11-29T03:27:01.551Z,8.35
2022-11-29T03:27:43.874Z,9.02
2022-11-29T03:28:21.031Z,9.00
2022-11-29T03:29:09.602Z,8.07
2022-11-29T03:29:58.631Z,8.48
2022-11-29T03:30:34.526Z,8.63
2022-11-29T03:31:18.377Z,8.15
2022-11-29T03:32:02.541Z,7.65
2022-11-29T03:32:45.691Z,9.27
2022-11-29T03:33:43.278Z,8.23
2022-11-29T03:34:26.953Z,7.95
2022-11-29T03:35:01.411Z,8.77
2022-11-29T03:35:39.562Z,8.48
2022-11-29T03:36:28.944Z,7.72
2022-11-29T03:37:12.568Z,8.40
2022-11-29T03:38:19.232Z,8.88
2022-11-29T03:38:55.062Z,8.13
2022-11-29T03:39:45.079Z,8.77
2022-11-29T03:40:25.569Z,7.97
2022-11-29T03:41:57.209Z,8.50
2022-11-29T03:42:36.227Z,8.15
2022-11-29T03:43:17.070Z,7.85
2022-11-29T03:44:39.840Z,8.52
2022-11-29T03:45:24.953Z,8.23
2022-11-29T03:46:03.485Z,9.23
2022-11-29T03:46:44.000Z,7.93
2022-11-29T03:47:23.743Z,8.43
2022-11-29T03:48:07.384Z,8.50
2022-11-29T03:48:59.497Z,8.50
2022-11-29T03:49:37.781Z,8.57
2022-11-29T03:50:25.995Z,8.20
2022-11-29T03:51:12.503Z,7.90
2022-11-29T03:51:56.385Z,8.85
2022-11-29T03:52:38.552Z,8.32
2022-11-29T03:53:36.011Z,8.00
2022-11-29T03:54:16.488Z,8.45
2022-11-29T03:55:14.482Z,8.48
2022-11-29T03:55:48.975Z,8.90
2022-11-29T03:56:32.123Z,9.32
2022-11-29T03:57:04.316Z,8.75
2022-11-29T03:58:17.540Z,9.13
2022-11-29T03:59:10.586Z,9.35
2022-11-29T03:59:51.030Z,8.82
2022-11-29T04:00:23.763Z,7.62
2022-11-29T04:01:21.546Z,9.48
2022-11-29T04:02:08.706Z,9.35
2022-11-29T04:03:01.073Z,8.13
2022-11-29T04:03:50.926Z,8.57
2022-11-29T04:04:40.949Z,8.32
2022-11-29T04:05:21.985Z,8.63
2022-11-29T04:06:16.302Z,9.20
2022-11-29T04:07:30.061Z,8.63
2022-11-29T04:08:39.512Z,9.32
2022-11-29T04:09:40.263Z,8.63
2022-11-29T04:10:29.991Z,9.05
2022-11-29T04:11:31.397Z,9.32
2022-11-29T04:12:22.261Z,9.13
2022-11-29T04:13:27.628Z,8.07
2022-11-29T04:14:27.093Z,9.05
2022-11-29T04:15:16.622Z,8.65
2022-11-29T04:16:07.610Z,9.40
2022-11-29T04:17:03.526Z,9.50
2022-11-29T04:17:45.107Z,9.02
2022-11-29T04:18:29.080Z,8.70
2022-11-29T04:19:31.988Z,8.98
2022-11-29T04:20:21.862Z,8.95
2022-11-29T04:21:08.539Z,8.23
2022-11-29T04:22:19.390Z,9.45
2022-11-29T04:23:25.650Z,9.85
2022-11-29T04:24:20.815Z,10.38
2022-11-29T04:25:07.713Z,9.23
2022-11-29T04:25:54.775Z,9.68
2022-11-29T04:26:40.155Z,9.52
2022-11-29T04:27:33.067Z,9.77
2022-11-29T04:28:47.066Z,9.38
2022-11-29T04:29:43.784Z,10.23
2022-11-29T04:30:23.705Z,9.57
2022-11-29T04:31:13.614Z,10.95
2022-11-29T04:32:10.364Z,12.25
2022-11-29T04:33:03.189Z,10.20
2022-11-29T04:34:00.374Z,10.07
2022-11-29T04:34:47.501Z,10.25
2022-11-29T04:35:43.951Z,9.60
2022-11-29T04:36:38.681Z,10.95
2022-11-29T04:37:37.891Z,9.35
2022-11-29T04:38:47.901Z,10.25
2022-11-29T04:39:48.924Z,9.80
2022-11-29T04:40:49.972Z,10.13
2022-11-29T04:41:36.610Z,11.02
2022-11-29T04:42:23.584Z,8.77
2022-11-29T04:43:27.614Z,10.27
2022-11-29T04:44:36.922Z,10.52
2022-11-29T04:45:36.457Z,12.68
2022-11-29T04:46:39.257Z,12.98
2022-11-29T04:47:19.723Z,23.92
2022-11-29T04:48:13.924Z,19.48
2022-11-29T04:48:51.675Z,26.00
2022-11-29T04:49:52.741Z,26.87
2022-11-29T04:50:40.082Z,14.02
2022-11-29T04:51:30.053Z,17.92
2022-11-29T04:52:29.602Z,13.32
2022-11-29T04:53:22.361Z,12.48
2022-11-29T04:54:15.999Z,13.60
2022-11-29T04:55:06.539Z,11.15
2022-11-29T04:56:04.307Z,10.90
2022-11-29T04:57:08.253Z,9.43
2022-11-29T04:57:45.723Z,10.27
2022-11-29T04:58:32.783Z,10.35
2022-11-29T04:59:24.812Z,11.15
2022-11-29T05:00:08.028Z,11.95
2022-11-29T05:00:51.936Z,15.93
2022-11-29T05:02:11.552Z,14.00
2022-11-29T05:02:59.690Z,11.85
2022-11-29T05:03:39.087Z,12.07
2022-11-29T05:04:16.389Z,11.60
2022-11-29T05:04:53.763Z,11.52
2022-11-29T05:05:43.201Z,11.77
2022-11-29T05:06:35.159Z,11.65
2022-11-29T05:07:18.783Z,10.57
2022-11-29T05:07:53.287Z,10.40
2022-11-29T05:08:56.709Z,11.45
2022-11-29T05:09:55.338Z,11.88
2022-11-29T05:11:01.208Z,9.90
2022-11-29T05:12:14.895Z,19.30
2022-11-29T05:13:20.578Z,20.83
2022-11-29T05:14:41.772Z,12.15
2022-11-29T05:15:41.383Z,10.63
2022-11-29T05:16:46.514Z,11.70
2022-11-29T05:17:31.582Z,11.73
2022-11-29T05:18:26.393Z,11.60
2022-11-29T05:19:22.946Z,13.18
2022-11-29T05:20:26.265Z,11.20
2022-11-29T05:21:16.827Z,14.50
2022-11-29T05:22:19.558Z,14.38
2022-11-29T05:23:29.118Z,12.23
2022-11-29T05:24:31.590Z,12.60
2022-11-29T05:25:32.401Z,16.40
2022-11-29T05:26:17.760Z,16.95
2022-11-29T05:27:28.352Z,16.30
2022-11-29T05:28:10.335Z,16.45
2022-11-29T05:29:03.823Z,18.85
2022-11-29T05:29:46.226Z,19.65
2022-11-29T05:30:21.116Z,19.42
2022-11-29T05:31:23.795Z,21.77
2022-11-29T05:32:00.207Z,16.02
2022-11-29T05:33:01.086Z,15.00
2022-11-29T05:33:45.200Z,12.02
2022-11-29T05:34:19.910Z,11.70
2022-11-29T05:35:34.716Z,12.57
2022-11-29T05:36:25.184Z,13.68
2022-11-29T05:37:15.145Z,14.68
2022-11-29T05:37:52.069Z,15.30
2022-11-29T05:38:23.855Z,14.68
2022-11-29T05:39:33.196Z,15.55
2022-11-29T05:40:36.634Z,13.68
2022-11-29T05:41:50.064Z,14.40
2022-11-29T05:42:34.307Z,12.77
2022-11-29T05:43:12.252Z,11.93
2022-11-29T05:44:21.259Z,12.48
2022-11-29T05:45:03.069Z,12.77
2022-11-29T05:45:43.530Z,12.02
2022-11-29T05:46:39.976Z,12.40
2022-11-29T05:47:24.676Z,11.50
2022-11-29T05:48:37.755Z,11.93
2022-11-29T05:49:20.984Z,11.35
2022-11-29T05:50:05.334Z,11.30
2022-11-29T05:50:52.721Z,13.05
2022-11-29T05:51:58.396Z,10.45
2022-11-29T05:52:48.781Z,11.15
2022-11-29T05:53:43.491Z,10.60
2022-11-29T05:54:36.990Z,11.52
2022-11-29T05:55:15.187Z,11.75
2022-11-29T05:56:05.777Z,11.48
2022-11-29T05:57:02.112Z,11.12
2022-11-29T05:57:55.404Z,10.60
2022-11-29T05:58:52.528Z,10.88
2022-11-29T05:59:29.053Z,11.75
2022-11-29T06:00:03.155Z,10.30
2022-11-29T06:01:00.453Z,11.75
2022-11-29T06:01:59.484Z,11.43
2022-11-29T06:03:00.934Z,11.60
2022-11-29T06:03:53.524Z,11.60
2022-11-29T06:04:40.322Z,10.80
2022-11-29T06:05:30.674Z,12.77
2022-11-29T06:06:19.653Z,10.75
2022-11-29T06:07:38.800Z,11.73
2022-11-29T06:08:25.769Z,10.82
2022-11-29T06:09:21.946Z,12.18
2022-11-29T06:10:11.703Z,12.10
2022-11-29T06:11:06.358Z,10.38
2022-11-29T06:11:52.987Z,11.63
2022-11-29T06:12:26.881Z,11.65
2022-11-29T06:13:04.283Z,10.45
2022-11-29T06:13:50.988Z,10.73
2022-11-29T06:14:26.000Z,9.00
2022-11-29T06:15:19.948Z,10.82
2022-11-29T06:16:07.001Z,9.98
2022-11-29T06:16:57.307Z,10.38
2022-11-29T06:17:48.893Z,8.68
2022-11-29T06:19:11.948Z,9.18
2022-11-29T06:20:22.154Z,9.23
2022-11-29T06:21:13.194Z,9.00
2022-11-29T06:22:07.154Z,9.40
2022-11-29T06:22:42.123Z,9.77
2022-11-29T06:23:29.183Z,9.70
2022-11-29T06:24:36.357Z,8.73
2022-11-29T06:25:15.544Z,8.80
2022-11-29T06:26:07.271Z,8.73
2022-11-29T06:26:58.147Z,9.00
2022-11-29T06:27:49.763Z,9.55
2022-11-29T06:28:28.555Z,8.75
2022-11-29T06:29:03.802Z,9.80
2022-11-29T06:30:11.710Z,9.88
2022-11-29T06:30:49.301Z,9.60
2022-11-29T06:31:27.136Z,9.77
2022-11-29T06:32:30.507Z,10.35
2022-11-29T06:33:18.905Z,10.55
2022-11-29T06:34:15.044Z,10.20
2022-11-29T06:34:54.904Z,10.10
2022-11-29T06:35:46.410Z,9.70
2022-11-29T06:36:42.903Z,9.40
2022-11-29T06:37:31.505Z,10.13
2022-11-29T06:38:13.977Z,8.65
2022-11-29T06:38:46.049Z,10.07
2022-11-29T06:39:18.560Z,9.63
2022-11-29T06:39:50.720Z,10.27
2022-11-29T06:40:23.033Z,11.05
2022-11-29T06:41:01.540Z,10.57
2022-11-29T06:41:34.410Z,10.40
2022-11-29T06:42:06.289Z,10.60
2022-11-29T06:42:38.401Z,10.82
2022-11-29T06:43:10.495Z,10.80
2022-11-29T06:43:42.616Z,10.82
2022-11-29T06:44:14.937Z,11.57
2022-11-29T06:44:47.804Z,11.20
2022-11-29T06:45:21.830Z,10.40
2022-11-29T06:45:59.519Z,10.70
2022-11-29T06:46:48.162Z,10.35
2022-11-29T06:47:42.658Z,10.77
2022-11-29T06:48:25.680Z,10.20
2022-11-29T06:49:12.132Z,9.70
2022-11-29T06:49:49.728Z,10.02
2022-11-29T06:50:33.419Z,10.13
2022-11-29T06:51:17.410Z,10.73
2022-11-29T06:51:58.091Z,8.98
2022-11-29T06:52:54.678Z,9.70
2022-11-29T06:53:38.719Z,9.50
2022-11-29T06:54:19.066Z,11.27
2022-11-29T06:55:22.653Z,9.90
2022-11-29T06:56:32.945Z,14.20
2022-11-29T06:57:10.553Z,19.37
2022-11-29T06:57:48.352Z,26.83
2022-11-29T06:58:51.360Z,28.23
2022-11-29T07:00:16.355Z,18.52
2022-11-29T07:01:03.568Z,10.32
2022-11-29T07:01:58.422Z,9.10
2022-11-29T07:03:07.739Z,9.35
2022-11-29T07:03:42.455Z,10.00
2022-11-29T07:04:46.308Z,9.95
2022-11-29T07:05:27.701Z,9.10
2022-11-29T07:06:08.224Z,10.45
2022-11-29T07:07:19.635Z,10.35
2022-11-29T07:07:57.707Z,9.63
2022-11-29T07:08:29.811Z,10.93
2022-11-29T07:09:11.927Z,10.52
2022-11-29T07:09:46.063Z,9.55
2022-11-29T07:10:19.407Z,10.25
2022-11-29T07:10:54.121Z,9.90
2022-11-29T07:11:26.658Z,9.55
2022-11-29T07:11:59.061Z,11.02
2022-11-29T07:12:31.254Z,9.38
2022-11-29T07:13:03.927Z,9.90
2022-11-29T07:13:36.008Z,9.63
2022-11-29T07:14:09.854Z,10.82
2022-11-29T07:14:42.302Z,9.57
2022-11-29T07:15:20.701Z,9.65
2022-11-29T07:16:11.431Z,10.52
2022-11-29T07:16:59.748Z,9.85
2022-11-29T07:17:43.871Z,9.13
2022-11-29T07:18:39.177Z,10.23
2022-11-29T07:19:35.279Z,10.27
2022-11-29T07:20:25.706Z,9.45
2022-11-29T07:21:03.219Z,9.40
2022-11-29T07:21:53.341Z,9.38
2022-11-29T07:22:39.951Z,9.80
2022-11-29T07:23:29.816Z,9.20
2022-11-29T07:24:32.358Z,9.95
2022-11-29T07:25:38.134Z,11.55
2022-11-29T07:26:29.120Z,11.12
2022-11-29T07:27:13.372Z,10.45
2022-11-29T07:27:58.606Z,10.02
2022-11-29T07:28:43.122Z,10.50
2022-11-29T07:29:37.093Z,9.38
2022-11-29T07:30:19.058Z,9.73
2022-11-29T07:30:59.249Z,10.25
2022-11-29T07:31:55.222Z,10.88
2022-11-29T07:33:00.343Z,9.82
2022-11-29T07:33:48.094Z,10.00
2022-11-29T07:34:35.412Z,9.52
2022-11-29T07:35:15.534Z,9.48
2022-11-29T07:36:05.998Z,11.07
2022-11-29T07:37:22.369Z,11.32
2022-11-29T07:38:10.149Z,12.60
2022-11-29T07:38:55.663Z,12.30
2022-11-29T07:39:36.214Z,11.57
2022-11-29T07:40:35.937Z,11.65
2022-11-29T07:41:24.295Z,11.73
2022-11-29T07:42:08.038Z,11.27
2022-11-29T07:43:23.397Z,11.23
2022-11-29T07:44:36.384Z,12.00
2022-11-29T07:45:11.236Z,11.35
2022-11-29T07:45:43.262Z,10.25
2022-11-29T07:46:15.216Z,10.18
2022-11-29T07:46:47.237Z,11.80
2022-11-29T07:47:19.226Z,11.77
2022-11-29T07:47:51.612Z,11.88
2022-11-29T07:48:23.532Z,11.48
2022-11-29T07:48:55.703Z,12.75
2022-11-29T07:49:27.531Z,11.73
2022-11-29T07:49:59.390Z,11.93
2022-11-29T07:50:31.792Z,11.90
2022-11-29T07:51:03.846Z,11.88
2022-11-29T07:51:35.792Z,11.35
2022-11-29T07:52:14.740Z,12.20
2022-11-29T07:52:47.678Z,10.90
2022-11-29T07:53:21.787Z,11.12
2022-11-29T07:53:53.971Z,11.77
2022-11-29T07:54:26.745Z,11.38
2022-11-29T07:54:58.562Z,10.93
2022-11-29T07:55:34.328Z,12.13
2022-11-29T07:56:06.349Z,12.10
2022-11-29T07:56:38.178Z,12.75
2022-11-29T07:57:10.079Z,13.43
2022-11-29T07:57:41.939Z,13.45
2022-11-29T07:58:15.780Z,14.02
2022-11-29T07:58:47.789Z,11.75
2022-11-29T07:59:20.121Z,12.25
2022-11-29T07:59:52.258Z,14.35
2022-11-29T08:00:24.229Z,11.98
2022-11-29T08:00:56.416Z,12.88
2022-11-29T08:01:28.354Z,12.43
2022-11-29T08:02:00.364Z,12.95
2022-11-29T08:02:32.957Z,13.45
2022-11-29T08:03:05.284Z,13.65
2022-11-29T08:03:37.305Z,11.88
2022-11-29T08:04:09.518Z,11.88
2022-11-29T08:04:44.289Z,12.30
2022-11-29T08:05:17.099Z,12.57
2022-11-29T08:05:49.027Z,13.68
2022-11-29T08:06:26.574Z,12.37
2022-11-29T08:07:00.124Z,12.57
2022-11-29T08:07:35.443Z,12.35
2022-11-29T08:08:07.666Z,12.32
2022-11-29T08:08:43.949Z,11.12
2022-11-29T08:09:16.335Z,11.70
2022-11-29T08:09:48.302Z,11.18
2022-11-29T08:10:20.284Z,11.95
2022-11-29T08:10:52.099Z,10.65
2022-11-29T08:11:24.948Z,10.95
2022-11-29T08:11:56.827Z,10.77
2022-11-29T08:12:28.849Z,10.95
2022-11-29T08:13:00.715Z,11.60
2022-11-29T08:13:32.550Z,11.52
2022-11-29T08:14:05.403Z,10.65
2022-11-29T08:14:37.291Z,12.93
2022-11-29T08:15:09.713Z,13.15
2022-11-29T08:15:48.753Z,14.48
2022-11-29T08:16:20.610Z,11.93
2022-11-29T08:16:52.710Z,11.57
2022-11-29T08:17:25.886Z,10.85
2022-11-29T08:17:57.975Z,11.15
2022-11-29T08:18:29.789Z,9.52
2022-11-29T08:19:01.872Z,9.13
2022-11-29T08:19:33.690Z,10.07
2022-11-29T08:20:07.260Z,9.77
2022-11-29T08:20:41.278Z,10.77
2022-11-29T08:21:18.022Z,10.60
2022-11-29T08:21:51.147Z,10.75
2022-11-29T08:22:23.279Z,11.18
2022-11-29T08:22:59.657Z,10.43
2022-11-29T08:23:31.518Z,12.37
2022-11-29T08:24:03.392Z,11.02
2022-11-29T08:24:35.322Z,12.25
2022-11-29T08:25:09.004Z,12.52
2022-11-29T08:25:41.218Z,10.88
2022-11-29T08:26:13.343Z,11.20
2022-11-29T08:26:45.177Z,11.25
2022-11-29T08:27:17.053Z,10.40
2022-11-29T08:27:49.185Z,10.13
2022-11-29T08:28:21.169Z,9.73
2022-11-29T08:28:53.110Z,10.60
2022-11-29T08:29:25.293Z,9.70
2022-11-29T08:29:57.125Z,9.70
2022-11-29T08:30:28.932Z,9.95
2022-11-29T08:31:05.685Z,10.15
2022-11-29T08:31:37.635Z,8.95
2022-11-29T08:32:09.485Z,9.55
2022-11-29T08:32:41.324Z,9.35
2022-11-29T08:33:13.486Z,10.77
2022-11-29T08:33:45.350Z,8.98
2022-11-29T08:34:17.163Z,9.18
2022-11-29T08:34:49.216Z,9.57
2022-11-29T08:35:22.918Z,9.30
2022-11-29T08:35:54.775Z,9.27
2022-11-29T08:36:26.593Z,11.00
2022-11-29T08:36:58.454Z,10.40
2022-11-29T08:37:30.335Z,10.30
2022-11-29T08:38:03.868Z,10.32
2022-11-29T08:38:37.212Z,10.88
2022-11-29T08:39:09.807Z,11.00
2022-11-29T08:39:41.711Z,11.50
2022-11-29T08:40:14.454Z,10.25
2022-11-29T08:40:46.281Z,9.90
2022-11-29T08:41:18.503Z,10.13
2022-11-29T08:41:50.440Z,11.00
2022-11-29T08:42:22.696Z,11.07
2022-11-29T08:42:58.509Z,10.63
2022-11-29T08:43:31.130Z,11.07
2022-11-29T08:44:05.156Z,10.23
2022-11-29T08:44:37.159Z,11.30
2022-11-29T08:45:09.850Z,11.18
2022-11-29T08:45:41.773Z,12.00
2022-11-29T08:46:18.245Z,12.10
2022-11-29T08:47:09.510Z,10.43
2022-11-29T08:47:42.463Z,10.63
2022-11-29T08:48:14.700Z,9.65
2022-11-29T08:48:47.663Z,10.32
2022-11-29T08:49:19.850Z,10.85
2022-11-29T08:50:03.858Z,10.13
2022-11-29T08:50:35.696Z,10.10
2022-11-29T08:51:07.611Z,10.23
2022-11-29T08:51:39.431Z,10.00
2022-11-29T08:52:31.182Z,10.10
2022-11-29T08:53:21.793Z,10.45
2022-11-29T08:53:53.704Z,9.27
2022-11-29T08:54:25.829Z,9.50
2022-11-29T08:55:02.882Z,9.98
2022-11-29T08:55:39.644Z,14.75
2022-11-29T08:57:38.608Z,14.27
2022-11-29T08:58:09.095Z,11.80
2022-11-29T08:58:41.294Z,9.75
2022-11-29T08:59:13.179Z,10.10
2022-11-29T08:59:45.322Z,9.65
2022-11-29T09:00:18.832Z,8.90
2022-11-29T09:00:50.672Z,10.05
2022-11-29T09:01:22.683Z,9.60
2022-11-29T09:01:55.142Z,10.55
2022-11-29T09:02:27.195Z,9.15
2022-11-29T09:03:19.523Z,10.32
2022-11-29T09:04:00.475Z,10.75
2022-11-29T09:04:32.311Z,10.93
2022-11-29T09:05:05.728Z,10.38
2022-11-29T09:05:37.861Z,10.35
2022-11-29T09:06:12.931Z,9.57
2022-11-29T09:06:44.854Z,10.25
2022-11-29T09:07:16.945Z,10.88
2022-11-29T09:07:48.911Z,10.32
2022-11-29T09:08:21.626Z,9.65
2022-11-29T09:08:58.409Z,11.32
2022-11-29T09:09:30.281Z,11.32
2022-11-29T09:10:08.073Z,10.77
2022-11-29T09:10:41.506Z,11.15
2022-11-29T09:11:19.867Z,10.68